sensor_id;sensor_type;location;lat;lon;timestamp;temperature;humidity
36990;DHT22;22898;52.102;5.776;2023-04-15T00:00:08;15.70;77.70
36990;DHT22;22898;52.102;5.776;2023-04-15T00:02:34;15.70;77.70
36990;DHT22;22898;52.102;5.776;2023-04-15T00:05:01;15.80;77.30
36990;DHT22;22898;52.102;5.776;2023-04-15T00:07:27;15.90;77.50
36990;DHT22;22898;52.102;5.776;2023-04-15T00:09:54;15.80;78.40
36990;DHT22;22898;52.102;5.776;2023-04-15T00:12:22;15.90;78.00
36990;DHT22;22898;52.102;5.776;2023-04-15T00:14:48;15.90;77.50
36990;DHT22;22898;52.102;5.776;2023-04-15T00:17:14;15.70;77.90
36990;DHT22;22898;52.102;5.776;2023-04-15T00:19:40;15.70;78.20
36990;DHT22;22898;52.102;5.776;2023-04-15T00:22:06;15.60;78.20
36990;DHT22;22898;52.102;5.776;2023-04-15T00:24:32;15.50;78.60
36990;DHT22;22898;52.102;5.776;2023-04-15T00:26:59;15.60;78.30
36990;DHT22;22898;52.102;5.776;2023-04-15T00:29:25;15.60;78.30
36990;DHT22;22898;52.102;5.776;2023-04-15T00:31:52;15.40;78.50
36990;DHT22;22898;52.102;5.776;2023-04-15T00:34:17;15.50;78.00
36990;DHT22;22898;52.102;5.776;2023-04-15T00:36:43;15.40;78.90
36990;DHT22;22898;52.102;5.776;2023-04-15T00:39:09;15.50;78.70
36990;DHT22;22898;52.102;5.776;2023-04-15T00:41:34;15.50;78.90
36990;DHT22;22898;52.102;5.776;2023-04-15T00:44:07;15.50;78.30
36990;DHT22;22898;52.102;5.776;2023-04-15T00:46:35;15.30;79.10
36990;DHT22;22898;52.102;5.776;2023-04-15T00:49:03;15.30;79.10
36990;DHT22;22898;52.102;5.776;2023-04-15T00:51:29;15.40;79.20
36990;DHT22;22898;52.102;5.776;2023-04-15T00:53:56;15.40;79.20
36990;DHT22;22898;52.102;5.776;2023-04-15T00:56:22;15.40;79.20
36990;DHT22;22898;52.102;5.776;2023-04-15T00:58:49;15.40;79.20
36990;DHT22;22898;52.102;5.776;2023-04-15T01:01:17;15.40;79.10
36990;DHT22;22898;52.102;5.776;2023-04-15T01:03:46;15.30;79.30
36990;DHT22;22898;52.102;5.776;2023-04-15T01:06:11;15.30;79.70
36990;DHT22;22898;52.102;5.776;2023-04-15T01:08:38;15.30;79.50
36990;DHT22;22898;52.102;5.776;2023-04-15T01:11:04;15.30;79.60
36990;DHT22;22898;52.102;5.776;2023-04-15T01:13:30;15.20;79.60
36990;DHT22;22898;52.102;5.776;2023-04-15T01:15:58;15.10;80.00
36990;DHT22;22898;52.102;5.776;2023-04-15T01:18:23;15.10;80.20
36990;DHT22;22898;52.102;5.776;2023-04-15T01:20:49;15.20;80.20
36990;DHT22;22898;52.102;5.776;2023-04-15T01:23:15;15.20;80.00
36990;DHT22;22898;52.102;5.776;2023-04-15T01:25:42;15.20;80.00
36990;DHT22;22898;52.102;5.776;2023-04-15T01:28:08;15.20;80.30
36990;DHT22;22898;52.102;5.776;2023-04-15T01:30:35;15.20;80.30
36990;DHT22;22898;52.102;5.776;2023-04-15T01:33:01;15.10;80.80
36990;DHT22;22898;52.102;5.776;2023-04-15T01:35:27;15.00;81.30
36990;DHT22;22898;52.102;5.776;2023-04-15T01:37:53;14.90;81.60
36990;DHT22;22898;52.102;5.776;2023-04-15T01:40:22;14.90;81.60
36990;DHT22;22898;52.102;5.776;2023-04-15T01:42:47;14.90;81.80
36990;DHT22;22898;52.102;5.776;2023-04-15T01:45:13;14.90;81.90
36990;DHT22;22898;52.102;5.776;2023-04-15T01:47:38;14.80;82.80
36990;DHT22;22898;52.102;5.776;2023-04-15T01:50:05;14.80;82.00
36990;DHT22;22898;52.102;5.776;2023-04-15T01:52:31;14.70;82.40
36990;DHT22;22898;52.102;5.776;2023-04-15T01:54:56;14.70;82.10
36990;DHT22;22898;52.102;5.776;2023-04-15T01:57:22;14.70;82.30
36990;DHT22;22898;52.102;5.776;2023-04-15T01:59:47;14.80;82.20
36990;DHT22;22898;52.102;5.776;2023-04-15T02:02:13;14.70;82.30
36990;DHT22;22898;52.102;5.776;2023-04-15T02:04:39;14.70;82.60
36990;DHT22;22898;52.102;5.776;2023-04-15T02:07:05;14.60;83.00
36990;DHT22;22898;52.102;5.776;2023-04-15T02:09:31;14.60;83.00
36990;DHT22;22898;52.102;5.776;2023-04-15T02:11:57;14.70;83.30
36990;DHT22;22898;52.102;5.776;2023-04-15T02:14:22;14.70;83.20
36990;DHT22;22898;52.102;5.776;2023-04-15T02:16:48;14.70;83.20
36990;DHT22;22898;52.102;5.776;2023-04-15T02:19:13;14.70;83.10
36990;DHT22;22898;52.102;5.776;2023-04-15T02:21:39;14.70;83.50
36990;DHT22;22898;52.102;5.776;2023-04-15T02:24:06;14.70;83.50
36990;DHT22;22898;52.102;5.776;2023-04-15T02:26:31;14.70;83.40
36990;DHT22;22898;52.102;5.776;2023-04-15T02:28:58;14.60;84.00
36990;DHT22;22898;52.102;5.776;2023-04-15T02:31:24;14.50;84.30
36990;DHT22;22898;52.102;5.776;2023-04-15T02:33:49;14.60;84.00
36990;DHT22;22898;52.102;5.776;2023-04-15T02:36:15;14.60;83.80
36990;DHT22;22898;52.102;5.776;2023-04-15T02:38:41;14.50;84.20
36990;DHT22;22898;52.102;5.776;2023-04-15T02:41:08;14.40;84.80
36990;DHT22;22898;52.102;5.776;2023-04-15T02:43:34;14.50;85.10
36990;DHT22;22898;52.102;5.776;2023-04-15T02:46:00;14.40;84.90
36990;DHT22;22898;52.102;5.776;2023-04-15T02:48:26;14.30;85.40
36990;DHT22;22898;52.102;5.776;2023-04-15T02:50:51;14.20;86.00
36990;DHT22;22898;52.102;5.776;2023-04-15T02:53:17;14.00;86.40
36990;DHT22;22898;52.102;5.776;2023-04-15T02:55:44;13.90;87.20
36990;DHT22;22898;52.102;5.776;2023-04-15T02:58:10;13.90;87.70
36990;DHT22;22898;52.102;5.776;2023-04-15T03:00:36;13.90;88.10
36990;DHT22;22898;52.102;5.776;2023-04-15T03:03:03;14.00;89.40
36990;DHT22;22898;52.102;5.776;2023-04-15T03:05:28;13.90;88.30
36990;DHT22;22898;52.102;5.776;2023-04-15T03:07:54;13.80;89.30
36990;DHT22;22898;52.102;5.776;2023-04-15T03:10:20;13.80;89.50
36990;DHT22;22898;52.102;5.776;2023-04-15T03:12:46;13.90;89.40
36990;DHT22;22898;52.102;5.776;2023-04-15T03:15:11;14.00;89.20
36990;DHT22;22898;52.102;5.776;2023-04-15T03:17:37;14.20;88.60
36990;DHT22;22898;52.102;5.776;2023-04-15T03:20:04;14.30;88.60
36990;DHT22;22898;52.102;5.776;2023-04-15T03:22:31;14.30;88.00
36990;DHT22;22898;52.102;5.776;2023-04-15T03:24:56;14.30;88.10
36990;DHT22;22898;52.102;5.776;2023-04-15T03:27:22;14.30;88.30
36990;DHT22;22898;52.102;5.776;2023-04-15T03:29:48;14.10;88.80
36990;DHT22;22898;52.102;5.776;2023-04-15T03:32:13;13.70;89.90
36990;DHT22;22898;52.102;5.776;2023-04-15T03:34:40;13.20;90.60
36990;DHT22;22898;52.102;5.776;2023-04-15T03:37:06;12.90;91.10
36990;DHT22;22898;52.102;5.776;2023-04-15T03:39:32;12.60;91.60
36990;DHT22;22898;52.102;5.776;2023-04-15T03:41:58;12.30;92.30
36990;DHT22;22898;52.102;5.776;2023-04-15T03:44:25;12.20;92.70
36990;DHT22;22898;52.102;5.776;2023-04-15T03:46:51;12.00;93.10
36990;DHT22;22898;52.102;5.776;2023-04-15T03:49:17;12.20;93.20
36990;DHT22;22898;52.102;5.776;2023-04-15T03:51:43;12.40;92.80
36990;DHT22;22898;52.102;5.776;2023-04-15T03:54:09;12.70;92.60
36990;DHT22;22898;52.102;5.776;2023-04-15T03:56:35;12.70;92.50
36990;DHT22;22898;52.102;5.776;2023-04-15T03:59:01;12.90;92.20
36990;DHT22;22898;52.102;5.776;2023-04-15T04:01:27;13.00;92.10
36990;DHT22;22898;52.102;5.776;2023-04-15T04:03:52;12.90;92.20
36990;DHT22;22898;52.102;5.776;2023-04-15T04:06:18;13.00;92.00
36990;DHT22;22898;52.102;5.776;2023-04-15T04:08:44;13.00;92.00
36990;DHT22;22898;52.102;5.776;2023-04-15T04:11:09;13.00;92.00
36990;DHT22;22898;52.102;5.776;2023-04-15T04:13:35;13.10;92.00
36990;DHT22;22898;52.102;5.776;2023-04-15T04:16:01;13.00;91.90
36990;DHT22;22898;52.102;5.776;2023-04-15T04:18:26;13.00;92.10
36990;DHT22;22898;52.102;5.776;2023-04-15T04:20:52;12.80;92.30
36990;DHT22;22898;52.102;5.776;2023-04-15T04:23:18;12.50;92.70
36990;DHT22;22898;52.102;5.776;2023-04-15T04:25:43;12.30;93.30
36990;DHT22;22898;52.102;5.776;2023-04-15T04:28:09;12.40;93.30
36990;DHT22;22898;52.102;5.776;2023-04-15T04:30:35;12.60;93.20
36990;DHT22;22898;52.102;5.776;2023-04-15T04:33:01;12.60;93.00
36990;DHT22;22898;52.102;5.776;2023-04-15T04:35:27;12.60;93.00
36990;DHT22;22898;52.102;5.776;2023-04-15T04:37:52;12.40;93.10
36990;DHT22;22898;52.102;5.776;2023-04-15T04:40:18;12.20;93.70
36990;DHT22;22898;52.102;5.776;2023-04-15T04:42:43;12.30;93.90
36990;DHT22;22898;52.102;5.776;2023-04-15T04:45:10;12.50;93.60
36990;DHT22;22898;52.102;5.776;2023-04-15T04:47:35;12.80;93.10
36990;DHT22;22898;52.102;5.776;2023-04-15T04:50:01;12.90;92.90
36990;DHT22;22898;52.102;5.776;2023-04-15T04:52:26;12.80;93.00
36990;DHT22;22898;52.102;5.776;2023-04-15T04:54:52;12.70;93.20
36990;DHT22;22898;52.102;5.776;2023-04-15T04:57:17;12.60;93.50
36990;DHT22;22898;52.102;5.776;2023-04-15T04:59:43;12.50;93.60
36990;DHT22;22898;52.102;5.776;2023-04-15T05:02:08;12.30;93.70
36990;DHT22;22898;52.102;5.776;2023-04-15T05:04:35;12.20;94.20
36990;DHT22;22898;52.102;5.776;2023-04-15T05:07:01;12.10;94.50
36990;DHT22;22898;52.102;5.776;2023-04-15T05:09:26;12.00;94.80
36990;DHT22;22898;52.102;5.776;2023-04-15T05:11:52;11.90;95.00
36990;DHT22;22898;52.102;5.776;2023-04-15T05:14:18;12.00;95.20
36990;DHT22;22898;52.102;5.776;2023-04-15T05:16:43;11.90;95.40
36990;DHT22;22898;52.102;5.776;2023-04-15T05:19:09;11.90;95.40
36990;DHT22;22898;52.102;5.776;2023-04-15T05:21:35;11.90;95.70
36990;DHT22;22898;52.102;5.776;2023-04-15T05:24:00;11.80;96.00
36990;DHT22;22898;52.102;5.776;2023-04-15T05:26:26;11.80;96.10
36990;DHT22;22898;52.102;5.776;2023-04-15T05:28:51;11.80;96.20
36990;DHT22;22898;52.102;5.776;2023-04-15T05:31:17;11.70;96.80
36990;DHT22;22898;52.102;5.776;2023-04-15T05:33:43;11.80;97.10
36990;DHT22;22898;52.102;5.776;2023-04-15T05:36:08;12.10;96.60
36990;DHT22;22898;52.102;5.776;2023-04-15T05:38:34;12.30;96.10
36990;DHT22;22898;52.102;5.776;2023-04-15T05:41:00;12.50;96.00
36990;DHT22;22898;52.102;5.776;2023-04-15T05:43:26;12.60;95.80
36990;DHT22;22898;52.102;5.776;2023-04-15T05:45:51;12.60;95.90
36990;DHT22;22898;52.102;5.776;2023-04-15T05:48:17;12.80;95.60
36990;DHT22;22898;52.102;5.776;2023-04-15T05:50:43;13.00;95.40
36990;DHT22;22898;52.102;5.776;2023-04-15T05:53:08;13.20;95.00
36990;DHT22;22898;52.102;5.776;2023-04-15T05:55:34;13.20;95.00
36990;DHT22;22898;52.102;5.776;2023-04-15T05:57:59;13.30;94.60
36990;DHT22;22898;52.102;5.776;2023-04-15T06:00:25;13.20;94.70
36990;DHT22;22898;52.102;5.776;2023-04-15T06:02:51;13.20;95.20
36990;DHT22;22898;52.102;5.776;2023-04-15T06:05:17;13.20;95.20
36990;DHT22;22898;52.102;5.776;2023-04-15T06:07:43;13.20;95.20
36990;DHT22;22898;52.102;5.776;2023-04-15T06:10:09;13.40;94.90
36990;DHT22;22898;52.102;5.776;2023-04-15T06:12:35;13.20;95.00
36990;DHT22;22898;52.102;5.776;2023-04-15T06:15:00;13.10;95.40
36990;DHT22;22898;52.102;5.776;2023-04-15T06:17:26;13.30;95.50
36990;DHT22;22898;52.102;5.776;2023-04-15T06:19:52;13.20;95.50
36990;DHT22;22898;52.102;5.776;2023-04-15T06:22:21;13.30;95.50
36990;DHT22;22898;52.102;5.776;2023-04-15T06:24:47;12.80;96.10
36990;DHT22;22898;52.102;5.776;2023-04-15T06:27:15;12.80;96.40
36990;DHT22;22898;52.102;5.776;2023-04-15T06:29:40;13.00;96.20
36990;DHT22;22898;52.102;5.776;2023-04-15T06:32:06;13.00;95.60
36990;DHT22;22898;52.102;5.776;2023-04-15T06:34:32;13.30;95.50
36990;DHT22;22898;52.102;5.776;2023-04-15T06:36:57;13.40;95.10
36990;DHT22;22898;52.102;5.776;2023-04-15T06:39:23;13.20;95.00
36990;DHT22;22898;52.102;5.776;2023-04-15T06:41:48;13.30;94.90
36990;DHT22;22898;52.102;5.776;2023-04-15T06:44:14;13.10;95.00
36990;DHT22;22898;52.102;5.776;2023-04-15T06:46:40;13.10;95.20
36990;DHT22;22898;52.102;5.776;2023-04-15T06:49:06;13.40;95.10
36990;DHT22;22898;52.102;5.776;2023-04-15T06:51:33;13.70;94.70
36990;DHT22;22898;52.102;5.776;2023-04-15T06:53:58;13.80;94.10
36990;DHT22;22898;52.102;5.776;2023-04-15T06:56:24;14.00;94.30
36990;DHT22;22898;52.102;5.776;2023-04-15T06:58:49;14.00;93.60
36990;DHT22;22898;52.102;5.776;2023-04-15T07:01:15;14.00;93.80
36990;DHT22;22898;52.102;5.776;2023-04-15T07:03:41;14.20;93.60
36990;DHT22;22898;52.102;5.776;2023-04-15T07:06:07;14.40;93.60
36990;DHT22;22898;52.102;5.776;2023-04-15T07:08:33;14.30;93.10
36990;DHT22;22898;52.102;5.776;2023-04-15T07:11:00;14.40;93.00
36990;DHT22;22898;52.102;5.776;2023-04-15T07:13:26;14.60;92.90
36990;DHT22;22898;52.102;5.776;2023-04-15T07:15:51;14.70;92.70
36990;DHT22;22898;52.102;5.776;2023-04-15T07:18:17;14.70;92.50
36990;DHT22;22898;52.102;5.776;2023-04-15T07:20:42;14.50;92.40
36990;DHT22;22898;52.102;5.776;2023-04-15T07:23:08;14.10;93.00
36990;DHT22;22898;52.102;5.776;2023-04-15T07:25:34;14.00;93.50
36990;DHT22;22898;52.102;5.776;2023-04-15T07:28:01;13.60;93.60
36990;DHT22;22898;52.102;5.776;2023-04-15T07:30:27;13.50;94.30
36990;DHT22;22898;52.102;5.776;2023-04-15T07:32:53;13.20;94.60
36990;DHT22;22898;52.102;5.776;2023-04-15T07:35:19;13.40;94.80
36990;DHT22;22898;52.102;5.776;2023-04-15T07:37:46;13.70;94.60
36990;DHT22;22898;52.102;5.776;2023-04-15T07:40:12;14.10;94.00
36990;DHT22;22898;52.102;5.776;2023-04-15T07:42:39;14.50;93.30
36990;DHT22;22898;52.102;5.776;2023-04-15T07:45:04;14.60;93.10
36990;DHT22;22898;52.102;5.776;2023-04-15T07:47:31;14.60;92.80
36990;DHT22;22898;52.102;5.776;2023-04-15T07:49:56;14.50;92.80
36990;DHT22;22898;52.102;5.776;2023-04-15T07:52:22;14.40;93.10
36990;DHT22;22898;52.102;5.776;2023-04-15T07:54:47;14.30;93.10
36990;DHT22;22898;52.102;5.776;2023-04-15T07:57:13;14.30;93.20
36990;DHT22;22898;52.102;5.776;2023-04-15T07:59:38;14.60;93.10
36990;DHT22;22898;52.102;5.776;2023-04-15T08:02:04;14.90;92.80
36990;DHT22;22898;52.102;5.776;2023-04-15T08:04:29;15.10;92.20
36990;DHT22;22898;52.102;5.776;2023-04-15T08:06:55;15.10;91.90
36990;DHT22;22898;52.102;5.776;2023-04-15T08:09:21;15.20;91.90
36990;DHT22;22898;52.102;5.776;2023-04-15T08:11:48;15.10;91.70
36990;DHT22;22898;52.102;5.776;2023-04-15T08:14:14;15.30;91.80
36990;DHT22;22898;52.102;5.776;2023-04-15T08:16:40;15.50;91.40
36990;DHT22;22898;52.102;5.776;2023-04-15T08:19:05;15.70;91.10
36990;DHT22;22898;52.102;5.776;2023-04-15T08:21:31;15.50;91.20
36990;DHT22;22898;52.102;5.776;2023-04-15T08:23:57;15.50;91.50
36990;DHT22;22898;52.102;5.776;2023-04-15T08:26:22;15.80;91.40
36990;DHT22;22898;52.102;5.776;2023-04-15T08:28:48;15.50;90.70
36990;DHT22;22898;52.102;5.776;2023-04-15T08:31:15;15.40;91.20
36990;DHT22;22898;52.102;5.776;2023-04-15T08:33:41;15.70;91.10
36990;DHT22;22898;52.102;5.776;2023-04-15T08:36:07;16.00;89.70
36990;DHT22;22898;52.102;5.776;2023-04-15T08:38:33;16.20;90.10
36990;DHT22;22898;52.102;5.776;2023-04-15T08:41:02;15.80;90.00
36990;DHT22;22898;52.102;5.776;2023-04-15T08:43:33;15.50;90.00
36990;DHT22;22898;52.102;5.776;2023-04-15T08:46:00;15.40;90.50
36990;DHT22;22898;52.102;5.776;2023-04-15T08:48:32;15.70;90.70
36990;DHT22;22898;52.102;5.776;2023-04-15T08:50:57;16.00;90.30
36990;DHT22;22898;52.102;5.776;2023-04-15T08:53:24;16.40;89.70
36990;DHT22;22898;52.102;5.776;2023-04-15T08:55:51;16.30;87.90
36990;DHT22;22898;52.102;5.776;2023-04-15T08:58:21;16.40;88.20
36990;DHT22;22898;52.102;5.776;2023-04-15T09:00:47;16.60;87.10
36990;DHT22;22898;52.102;5.776;2023-04-15T09:03:13;16.40;86.30
36990;DHT22;22898;52.102;5.776;2023-04-15T09:05:39;16.60;86.70
36990;DHT22;22898;52.102;5.776;2023-04-15T09:08:04;16.50;86.70
36990;DHT22;22898;52.102;5.776;2023-04-15T09:10:30;16.70;87.10
36990;DHT22;22898;52.102;5.776;2023-04-15T09:12:57;16.90;85.10
36990;DHT22;22898;52.102;5.776;2023-04-15T09:15:24;17.20;84.30
36990;DHT22;22898;52.102;5.776;2023-04-15T09:17:52;17.10;84.40
36990;DHT22;22898;52.102;5.776;2023-04-15T09:20:17;16.30;87.30
36990;DHT22;22898;52.102;5.776;2023-04-15T09:22:44;15.80;89.10
36990;DHT22;22898;52.102;5.776;2023-04-15T09:27:57;15.30;89.70
36990;DHT22;22898;52.102;5.776;2023-04-15T09:30:24;15.40;89.10
36990;DHT22;22898;52.102;5.776;2023-04-15T09:32:58;15.30;90.00
36990;DHT22;22898;52.102;5.776;2023-04-15T09:35:25;15.50;90.00
36990;DHT22;22898;52.102;5.776;2023-04-15T09:37:53;15.80;88.60
36990;DHT22;22898;52.102;5.776;2023-04-15T09:43:01;16.40;88.30
36990;DHT22;22898;52.102;5.776;2023-04-15T09:45:28;16.20;88.20
36990;DHT22;22898;52.102;5.776;2023-04-15T09:47:53;16.40;87.60
36990;DHT22;22898;52.102;5.776;2023-04-15T09:50:19;16.60;86.80
36990;DHT22;22898;52.102;5.776;2023-04-15T09:52:46;17.10;86.50
36990;DHT22;22898;52.102;5.776;2023-04-15T09:55:12;16.80;86.90
36990;DHT22;22898;52.102;5.776;2023-04-15T09:57:39;15.50;90.80
36990;DHT22;22898;52.102;5.776;2023-04-15T10:00:09;15.70;90.10
36990;DHT22;22898;52.102;5.776;2023-04-15T10:02:39;16.50;88.10
36990;DHT22;22898;52.102;5.776;2023-04-15T10:05:05;16.80;86.90
36990;DHT22;22898;52.102;5.776;2023-04-15T10:07:32;17.10;86.90
36990;DHT22;22898;52.102;5.776;2023-04-15T10:09:58;16.90;87.20
36990;DHT22;22898;52.102;5.776;2023-04-15T10:12:25;16.10;89.80
36990;DHT22;22898;52.102;5.776;2023-04-15T10:14:57;15.50;90.80
36990;DHT22;22898;52.102;5.776;2023-04-15T10:17:26;15.40;91.10
36990;DHT22;22898;52.102;5.776;2023-04-15T10:20:00;15.70;90.50
36990;DHT22;22898;52.102;5.776;2023-04-15T10:22:27;16.40;90.40
36990;DHT22;22898;52.102;5.776;2023-04-15T10:24:54;16.20;88.00
36990;DHT22;22898;52.102;5.776;2023-04-15T10:27:20;16.10;88.70
36990;DHT22;22898;52.102;5.776;2023-04-15T10:29:48;16.20;89.80
36990;DHT22;22898;52.102;5.776;2023-04-15T10:32:16;16.30;89.10
36990;DHT22;22898;52.102;5.776;2023-04-15T10:34:44;16.80;88.90
36990;DHT22;22898;52.102;5.776;2023-04-15T10:37:10;16.50;90.00
36990;DHT22;22898;52.102;5.776;2023-04-15T10:42:13;16.80;89.70
36990;DHT22;22898;52.102;5.776;2023-04-15T10:44:45;17.10;88.50
36990;DHT22;22898;52.102;5.776;2023-04-15T10:47:18;17.30;86.90
36990;DHT22;22898;52.102;5.776;2023-04-15T10:49:50;16.90;86.00
36990;DHT22;22898;52.102;5.776;2023-04-15T10:52:23;16.10;89.20
36990;DHT22;22898;52.102;5.776;2023-04-15T10:54:49;15.90;90.20
36990;DHT22;22898;52.102;5.776;2023-04-15T10:57:20;16.20;88.40
36990;DHT22;22898;52.102;5.776;2023-04-15T11:00:08;16.80;88.40
36990;DHT22;22898;52.102;5.776;2023-04-15T11:05:18;17.70;85.80
36990;DHT22;22898;52.102;5.776;2023-04-15T11:07:53;17.50;86.40
36990;DHT22;22898;52.102;5.776;2023-04-15T11:18:11;16.10;87.50
36990;DHT22;22898;52.102;5.776;2023-04-15T11:20:38;16.30;88.30
36990;DHT22;22898;52.102;5.776;2023-04-15T11:23:04;16.30;88.50
36990;DHT22;22898;52.102;5.776;2023-04-15T11:25:32;16.30;88.80
36990;DHT22;22898;52.102;5.776;2023-04-15T11:28:00;16.60;87.00
36990;DHT22;22898;52.102;5.776;2023-04-15T11:30:27;15.50;90.00
36990;DHT22;22898;52.102;5.776;2023-04-15T11:32:56;15.50;90.30
36990;DHT22;22898;52.102;5.776;2023-04-15T11:35:22;16.30;86.90
36990;DHT22;22898;52.102;5.776;2023-04-15T11:37:48;16.60;85.90
36990;DHT22;22898;52.102;5.776;2023-04-15T11:40:15;16.90;86.40
36990;DHT22;22898;52.102;5.776;2023-04-15T11:42:45;16.40;88.50
36990;DHT22;22898;52.102;5.776;2023-04-15T11:45:13;16.00;89.60
36990;DHT22;22898;52.102;5.776;2023-04-15T11:47:41;16.10;87.50
36990;DHT22;22898;52.102;5.776;2023-04-15T11:52:39;16.60;86.70
36990;DHT22;22898;52.102;5.776;2023-04-15T11:55:06;16.40;88.70
36990;DHT22;22898;52.102;5.776;2023-04-15T11:57:34;15.80;90.40
36990;DHT22;22898;52.102;5.776;2023-04-15T12:00:00;16.10;90.00
36990;DHT22;22898;52.102;5.776;2023-04-15T12:02:30;16.30;89.20
36990;DHT22;22898;52.102;5.776;2023-04-15T12:05:06;15.70;90.20
36990;DHT22;22898;52.102;5.776;2023-04-15T12:07:32;15.80;90.20
36990;DHT22;22898;52.102;5.776;2023-04-15T12:09:57;16.00;89.70
36990;DHT22;22898;52.102;5.776;2023-04-15T12:12:27;15.70;90.60
36990;DHT22;22898;52.102;5.776;2023-04-15T12:14:55;16.00;91.10
36990;DHT22;22898;52.102;5.776;2023-04-15T12:17:22;15.80;91.60
36990;DHT22;22898;52.102;5.776;2023-04-15T12:19:47;15.20;91.80
36990;DHT22;22898;52.102;5.776;2023-04-15T12:22:16;14.70;92.70
36990;DHT22;22898;52.102;5.776;2023-04-15T12:24:43;15.40;92.10
36990;DHT22;22898;52.102;5.776;2023-04-15T12:27:12;16.00;91.40
36990;DHT22;22898;52.102;5.776;2023-04-15T12:29:39;16.10;90.20
36990;DHT22;22898;52.102;5.776;2023-04-15T12:32:06;16.10;90.40
36990;DHT22;22898;52.102;5.776;2023-04-15T12:34:40;16.30;90.30
36990;DHT22;22898;52.102;5.776;2023-04-15T12:37:08;15.90;90.00
36990;DHT22;22898;52.102;5.776;2023-04-15T12:39:38;15.30;91.10
36990;DHT22;22898;52.102;5.776;2023-04-15T12:42:05;15.20;91.80
36990;DHT22;22898;52.102;5.776;2023-04-15T12:44:32;15.70;90.50
36990;DHT22;22898;52.102;5.776;2023-04-15T12:46:58;15.80;90.30
36990;DHT22;22898;52.102;5.776;2023-04-15T12:49:25;15.50;90.00
36990;DHT22;22898;52.102;5.776;2023-04-15T12:51:53;15.60;90.60
36990;DHT22;22898;52.102;5.776;2023-04-15T12:54:19;16.00;90.50
36990;DHT22;22898;52.102;5.776;2023-04-15T12:56:46;15.30;91.60
36990;DHT22;22898;52.102;5.776;2023-04-15T12:59:12;15.10;91.60
36990;DHT22;22898;52.102;5.776;2023-04-15T13:01:38;15.30;91.70
36990;DHT22;22898;52.102;5.776;2023-04-15T13:04:05;15.10;91.60
36990;DHT22;22898;52.102;5.776;2023-04-15T13:06:30;15.20;91.10
36990;DHT22;22898;52.102;5.776;2023-04-15T13:08:58;15.00;90.90
36990;DHT22;22898;52.102;5.776;2023-04-15T13:11:24;15.10;91.20
36990;DHT22;22898;52.102;5.776;2023-04-15T13:13:50;15.40;91.20
36990;DHT22;22898;52.102;5.776;2023-04-15T13:16:17;15.00;91.90
36990;DHT22;22898;52.102;5.776;2023-04-15T13:18:43;15.00;91.70
36990;DHT22;22898;52.102;5.776;2023-04-15T13:21:11;15.00;91.70
36990;DHT22;22898;52.102;5.776;2023-04-15T13:23:37;14.80;91.80
36990;DHT22;22898;52.102;5.776;2023-04-15T13:26:03;15.30;91.10
36990;DHT22;22898;52.102;5.776;2023-04-15T13:28:28;15.30;90.90
36990;DHT22;22898;52.102;5.776;2023-04-15T13:30:54;15.10;91.30
36990;DHT22;22898;52.102;5.776;2023-04-15T13:33:19;15.00;92.10
36990;DHT22;22898;52.102;5.776;2023-04-15T13:35:45;15.10;92.40
36990;DHT22;22898;52.102;5.776;2023-04-15T13:38:11;15.10;91.60
36990;DHT22;22898;52.102;5.776;2023-04-15T13:40:37;15.40;91.50
36990;DHT22;22898;52.102;5.776;2023-04-15T13:43:02;15.20;91.70
36990;DHT22;22898;52.102;5.776;2023-04-15T13:45:29;14.30;93.30
36990;DHT22;22898;52.102;5.776;2023-04-15T13:47:55;14.00;93.70
36990;DHT22;22898;52.102;5.776;2023-04-15T13:50:21;14.50;93.20
36990;DHT22;22898;52.102;5.776;2023-04-15T13:52:47;14.20;93.40
36990;DHT22;22898;52.102;5.776;2023-04-15T13:55:12;14.50;93.20
36990;DHT22;22898;52.102;5.776;2023-04-15T13:57:38;14.30;93.40
36990;DHT22;22898;52.102;5.776;2023-04-15T14:00:04;14.20;93.60
36990;DHT22;22898;52.102;5.776;2023-04-15T14:02:30;14.90;92.50
36990;DHT22;22898;52.102;5.776;2023-04-15T14:04:56;14.70;93.00
36990;DHT22;22898;52.102;5.776;2023-04-15T14:07:22;14.90;92.70
36990;DHT22;22898;52.102;5.776;2023-04-15T14:09:47;14.40;93.80
36990;DHT22;22898;52.102;5.776;2023-04-15T14:12:13;14.30;94.20
36990;DHT22;22898;52.102;5.776;2023-04-15T14:14:39;14.60;93.50
36990;DHT22;22898;52.102;5.776;2023-04-15T14:17:05;14.40;93.50
36990;DHT22;22898;52.102;5.776;2023-04-15T14:19:31;14.60;93.10
36990;DHT22;22898;52.102;5.776;2023-04-15T14:21:57;14.30;93.80
36990;DHT22;22898;52.102;5.776;2023-04-15T14:24:22;14.60;93.80
36990;DHT22;22898;52.102;5.776;2023-04-15T14:26:48;14.50;93.80
36990;DHT22;22898;52.102;5.776;2023-04-15T14:29:13;14.30;94.10
36990;DHT22;22898;52.102;5.776;2023-04-15T14:31:39;14.10;94.40
36990;DHT22;22898;52.102;5.776;2023-04-15T14:34:04;13.20;96.10
36990;DHT22;22898;52.102;5.776;2023-04-15T14:36:31;13.30;96.50
36990;DHT22;22898;52.102;5.776;2023-04-15T14:38:57;14.20;95.10
36990;DHT22;22898;52.102;5.776;2023-04-15T14:41:23;14.50;94.60
36990;DHT22;22898;52.102;5.776;2023-04-15T14:43:48;13.90;95.50
36990;DHT22;22898;52.102;5.776;2023-04-15T14:46:14;13.60;96.00
36990;DHT22;22898;52.102;5.776;2023-04-15T14:48:40;13.20;96.10
36990;DHT22;22898;52.102;5.776;2023-04-15T14:51:05;13.30;96.00
36990;DHT22;22898;52.102;5.776;2023-04-15T14:53:31;13.30;96.20
36990;DHT22;22898;52.102;5.776;2023-04-15T14:55:57;13.50;95.90
36990;DHT22;22898;52.102;5.776;2023-04-15T14:58:22;14.20;94.70
36990;DHT22;22898;52.102;5.776;2023-04-15T15:00:48;14.60;94.20
36990;DHT22;22898;52.102;5.776;2023-04-15T15:03:13;14.70;94.10
36990;DHT22;22898;52.102;5.776;2023-04-15T15:05:40;14.40;94.60
36990;DHT22;22898;52.102;5.776;2023-04-15T15:08:07;13.90;95.40
36990;DHT22;22898;52.102;5.776;2023-04-15T15:10:34;13.60;96.20
36990;DHT22;22898;52.102;5.776;2023-04-15T15:13:01;13.30;96.80
36990;DHT22;22898;52.102;5.776;2023-04-15T15:15:26;13.30;97.30
36990;DHT22;22898;52.102;5.776;2023-04-15T15:17:52;13.90;96.40
36990;DHT22;22898;52.102;5.776;2023-04-15T15:20:18;13.20;97.70
36990;DHT22;22898;52.102;5.776;2023-04-15T15:22:44;13.10;97.60
36990;DHT22;22898;52.102;5.776;2023-04-15T15:25:09;13.30;97.40
36990;DHT22;22898;52.102;5.776;2023-04-15T15:27:35;13.20;97.40
36990;DHT22;22898;52.102;5.776;2023-04-15T15:30:02;12.90;97.80
36990;DHT22;22898;52.102;5.776;2023-04-15T15:32:27;13.60;96.70
36990;DHT22;22898;52.102;5.776;2023-04-15T15:34:53;13.60;96.40
36990;DHT22;22898;52.102;5.776;2023-04-15T15:37:19;13.50;96.70
36990;DHT22;22898;52.102;5.776;2023-04-15T15:39:45;14.00;95.90
36990;DHT22;22898;52.102;5.776;2023-04-15T15:42:10;13.30;96.90
36990;DHT22;22898;52.102;5.776;2023-04-15T15:44:36;12.90;97.90